Planes, Francia

5:59 AM CET en Enero 24, 2017 (GMT +0100)
Rivesaltes | | Change Station

Alt 157 ft 42.73 °N, 2.87 °E | Updated 29 minutes ago

Parcialmente nublado
Parcialmente nublado
46 ° F
Sensación térmica 39 ° F
N
20
Viento Variable Viento desde NO

Hoy
Alta -- | Baja -- ° F
--% Posibilidad de precipitaciones
Ayer
Alta -- | Baja -- ° F
Precip. -- pul
Presión 30.06 pul
Visibilidad -9999.0 Millas
Nubes
Vientos helados 39 ° F
Punto de rocío 36 ° F
Humedad 66%
Precipitaciones 0.00 pul
Espesor de la nieve No disponible.
8:12 AM 5:54 PM
Creciente menguante, 14% visible
METAR LFMP 240430Z AUTO 32017KT 290V350 CAVOK 08/02 Q1018 BECMG 31015G25KT
Presión 30.06 pul
Visibilidad -9999.0 Millas
Nubes
Vientos helados 39 ° F
Punto de rocío 36 ° F
Humedad 66%
Precipitaciones 0.00 pul
Espesor de la nieve No disponible.
8:12 AM 5:54 PM
Creciente menguante, 14% visible
METAR LFMP 240430Z AUTO 32017KT 290V350 CAVOK 08/02 Q1018 BECMG 31015G25KT

Get Your Daily Forecast Email!

Thanks for signing up!

Be on the lookout for a verification email in your inbox.

You'll start receiving the daily forecast at 8 AM.

×

10-Day Weather Forecast

Heavy Snow conditions possible.
×

Almanac

Astronomía

Jan. 24, 2017 Salida Puesta
Hora real
Crepúsculo civil
Crepúsculo náutico
Crepúsculo astronómico
Luna
Horas de luz
Horas de luz
Tomorrow will be .
, % of the Moon is Illuminated

Extremos de hoy

Máximos del país Bajas del país

Community

WunderPhotos

Upload Photos

1,962,540 ¡fotos cargadas!

WunderBlog® & News

Nearby

Calidad del aire

  Calidad del aire Índice AQ Contaminante
Not available.

Grosos de nieve

Estación Profundido Altura

Actividad de terremotos

Ciudad Distance Mag. Tiempo y dato
Magnitud mínima muestra es 2,5.

Temperaturas de aguas costeras

Lugar Temperatura

Stations

Estaciones meteorológicas cercanas

Ubicación de la estación Temp. Vientos helados Punto de rocío Humedad Viento Precip. Alt Actualizado Tipo